sensor_id;sensor_type;location;lat;lon;timestamp;pressure;altitude;pressure_sealevel;temperature;humidity
21504;BME280;10913;51.992;9.228;2024-03-17T00:02:23;101112.09;;;5.68;100.00
21504;BME280;10913;51.992;9.228;2024-03-17T00:04:48;101120.84;;;5.69;100.00
21504;BME280;10913;51.992;9.228;2024-03-17T00:07:14;101126.06;;;5.67;100.00
21504;BME280;10913;51.992;9.228;2024-03-17T00:09:40;101117.25;;;5.65;100.00
21504;BME280;10913;51.992;9.228;2024-03-17T00:12:06;101111.94;;;5.62;100.00
21504;BME280;10913;51.992;9.228;2024-03-17T00:14:33;101118.00;;;5.61;100.00
21504;BME280;10913;51.992;9.228;2024-03-17T00:17:00;101117.06;;;5.58;100.00
21504;BME280;10913;51.992;9.228;2024-03-17T00:19:25;101123.97;;;5.54;100.00
21504;BME280;10913;51.992;9.228;2024-03-17T00:21:51;101119.53;;;5.51;100.00
21504;BME280;10913;51.992;9.228;2024-03-17T00:24:16;101122.09;;;5.50;100.00
21504;BME280;10913;51.992;9.228;2024-03-17T00:26:42;101113.25;;;5.46;100.00
21504;BME280;10913;51.992;9.228;2024-03-17T00:29:07;101120.16;;;5.43;100.00
21504;BME280;10913;51.992;9.228;2024-03-17T00:31:34;101118.31;;;5.39;100.00
21504;BME280;10913;51.992;9.228;2024-03-17T00:33:59;101120.00;;;5.37;100.00
21504;BME280;10913;51.992;9.228;2024-03-17T00:36:24;101126.97;;;5.36;100.00
21504;BME280;10913;51.992;9.228;2024-03-17T00:38:50;101119.91;;;5.34;100.00
21504;BME280;10913;51.992;9.228;2024-03-17T00:41:17;101119.81;;;5.31;100.00
21504;BME280;10913;51.992;9.228;2024-03-17T00:43:42;101122.41;;;5.29;100.00
21504;BME280;10913;51.992;9.228;2024-03-17T00:46:07;101113.59;;;5.27;100.00
21504;BME280;10913;51.992;9.228;2024-03-17T00:48:33;101115.16;;;5.20;100.00
21504;BME280;10913;51.992;9.228;2024-03-17T00:51:10;101111.59;;;5.17;100.00
21504;BME280;10913;51.992;9.228;2024-03-17T00:53:44;101101.72;;;5.08;100.00
21504;BME280;10913;51.992;9.228;2024-03-17T00:56:10;101101.53;;;5.02;100.00
21504;BME280;10913;51.992;9.228;2024-03-17T00:58:38;101103.22;;;4.99;100.00
21504;BME280;10913;51.992;9.228;2024-03-17T01:01:04;101105.75;;;4.96;100.00
21504;BME280;10913;51.992;9.228;2024-03-17T01:03:29;101099.53;;;4.92;100.00
21504;BME280;10913;51.992;9.228;2024-03-17T01:05:54;101100.19;;;4.85;100.00
21504;BME280;10913;51.992;9.228;2024-03-17T01:08:20;101100.13;;;4.83;100.00
21504;BME280;10913;51.992;9.228;2024-03-17T01:10:46;101099.19;;;4.81;100.00
21504;BME280;10913;51.992;9.228;2024-03-17T01:13:15;101092.16;;;4.79;100.00
21504;BME280;10913;51.992;9.228;2024-03-17T01:15:41;101090.28;;;4.75;100.00
21504;BME280;10913;51.992;9.228;2024-03-17T01:18:07;101096.31;;;4.72;100.00
21504;BME280;10913;51.992;9.228;2024-03-17T01:20:35;101085.81;;;4.71;100.00
21504;BME280;10913;51.992;9.228;2024-03-17T01:23:01;101093.66;;;4.71;100.00
21504;BME280;10913;51.992;9.228;2024-03-17T01:25:27;101089.25;;;4.70;100.00
21504;BME280;10913;51.992;9.228;2024-03-17T01:27:54;101081.31;;;4.67;100.00
21504;BME280;10913;51.992;9.228;2024-03-17T01:30:20;101079.53;;;4.66;100.00
21504;BME280;10913;51.992;9.228;2024-03-17T01:32:46;101085.47;;;4.60;100.00
21504;BME280;10913;51.992;9.228;2024-03-17T01:35:11;101081.00;;;4.56;100.00
21504;BME280;10913;51.992;9.228;2024-03-17T01:37:40;101083.63;;;4.56;100.00
21504;BME280;10913;51.992;9.228;2024-03-17T01:40:06;101087.97;;;4.56;100.00
21504;BME280;10913;51.992;9.228;2024-03-17T01:42:34;101086.28;;;4.58;100.00
21504;BME280;10913;51.992;9.228;2024-03-17T01:45:00;101084.53;;;4.57;100.00
21504;BME280;10913;51.992;9.228;2024-03-17T01:47:25;101091.53;;;4.58;100.00
21504;BME280;10913;51.992;9.228;2024-03-17T01:49:51;101086.19;;;4.55;100.00
21504;BME280;10913;51.992;9.228;2024-03-17T01:52:17;101084.38;;;4.52;100.00
21504;BME280;10913;51.992;9.228;2024-03-17T01:54:44;101083.34;;;4.47;100.00
21504;BME280;10913;51.992;9.228;2024-03-17T01:57:11;101084.97;;;4.43;100.00
21504;BME280;10913;51.992;9.228;2024-03-17T01:59:38;101083.25;;;4.44;100.00
21504;BME280;10913;51.992;9.228;2024-03-17T02:02:04;101077.06;;;4.42;100.00
21504;BME280;10913;51.992;9.228;2024-03-17T02:04:30;101074.44;;;4.42;100.00
21504;BME280;10913;51.992;9.228;2024-03-17T02:06:56;101078.91;;;4.44;100.00
21504;BME280;10913;51.992;9.228;2024-03-17T02:09:21;101072.72;;;4.42;100.00
21504;BME280;10913;51.992;9.228;2024-03-17T02:11:47;101077.06;;;4.42;100.00
21504;BME280;10913;51.992;9.228;2024-03-17T02:14:12;101070.94;;;4.41;100.00
21504;BME280;10913;51.992;9.228;2024-03-17T02:16:40;101073.56;;;4.41;100.00
21504;BME280;10913;51.992;9.228;2024-03-17T02:19:05;101068.28;;;4.38;100.00
21504;BME280;10913;51.992;9.228;2024-03-17T02:21:30;101068.16;;;4.35;100.00
21504;BME280;10913;51.992;9.228;2024-03-17T02:23:56;101073.31;;;4.32;100.00
21504;BME280;10913;51.992;9.228;2024-03-17T02:26:23;101067.81;;;4.25;100.00
21504;BME280;10913;51.992;9.228;2024-03-17T02:28:49;101060.69;;;4.19;100.00
21504;BME280;10913;51.992;9.228;2024-03-17T02:31:15;101067.66;;;4.20;100.00
21504;BME280;10913;51.992;9.228;2024-03-17T02:33:42;101060.69;;;4.19;100.00
21504;BME280;10913;51.992;9.228;2024-03-17T02:36:08;101059.72;;;4.15;100.00
21504;BME280;10913;51.992;9.228;2024-03-17T02:38:34;101061.47;;;4.17;100.00
21504;BME280;10913;51.992;9.228;2024-03-17T02:41:19;101062.28;;;4.14;100.00
21504;BME280;10913;51.992;9.228;2024-03-17T02:43:45;101065.63;;;4.10;100.00
21504;BME280;10913;51.992;9.228;2024-03-17T02:46:14;101069.63;;;3.99;100.00
21504;BME280;10913;51.992;9.228;2024-03-17T02:48:40;101065.94;;;3.92;100.00
21504;BME280;10913;51.992;9.228;2024-03-17T02:51:17;101071.06;;;3.89;100.00
21504;BME280;10913;51.992;9.228;2024-03-17T02:53:44;101072.78;;;3.89;100.00
21504;BME280;10913;51.992;9.228;2024-03-17T02:56:10;101077.00;;;3.85;100.00
21504;BME280;10913;51.992;9.228;2024-03-17T02:58:36;101083.03;;;3.83;100.00
21504;BME280;10913;51.992;9.228;2024-03-17T03:01:03;101083.78;;;3.78;100.00
21504;BME280;10913;51.992;9.228;2024-03-17T03:03:30;101081.25;;;3.81;100.00
21504;BME280;10913;51.992;9.228;2024-03-17T03:05:55;101075.19;;;3.83;100.00
21504;BME280;10913;51.992;9.228;2024-03-17T03:08:22;101083.06;;;3.84;100.00
21504;BME280;10913;51.992;9.228;2024-03-17T03:10:47;101076.19;;;3.86;100.00
21504;BME280;10913;51.992;9.228;2024-03-17T03:13:13;101071.72;;;3.84;100.00
21504;BME280;10913;51.992;9.228;2024-03-17T03:15:38;101073.41;;;3.81;100.00
21504;BME280;10913;51.992;9.228;2024-03-17T03:18:04;101076.91;;;3.82;100.00
21504;BME280;10913;51.992;9.228;2024-03-17T03:20:29;101075.19;;;3.83;100.00
21504;BME280;10913;51.992;9.228;2024-03-17T03:22:55;101075.09;;;3.79;100.00
21504;BME280;10913;51.992;9.228;2024-03-17T03:25:21;101075.13;;;3.81;100.00
21504;BME280;10913;51.992;9.228;2024-03-17T03:27:46;101069.88;;;3.79;100.00
21504;BME280;10913;51.992;9.228;2024-03-17T03:30:12;101076.78;;;3.77;100.00
21504;BME280;10913;51.992;9.228;2024-03-17T03:32:37;101075.78;;;3.74;100.00
21504;BME280;10913;51.992;9.228;2024-03-17T03:35:04;101080.00;;;3.70;100.00
21504;BME280;10913;51.992;9.228;2024-03-17T03:37:30;101079.03;;;3.67;100.00
21504;BME280;10913;51.992;9.228;2024-03-17T03:39:56;101081.47;;;3.62;100.00
21504;BME280;10913;51.992;9.228;2024-03-17T03:42:21;101081.41;;;3.59;100.00
21504;BME280;10913;51.992;9.228;2024-03-17T03:44:48;101083.06;;;3.57;100.00
21504;BME280;10913;51.992;9.228;2024-03-17T03:47:14;101077.72;;;3.54;100.00
21504;BME280;10913;51.992;9.228;2024-03-17T03:49:39;101078.50;;;3.52;100.00
21504;BME280;10913;51.992;9.228;2024-03-17T03:52:05;101074.06;;;3.49;100.00
21504;BME280;10913;51.992;9.228;2024-03-17T03:54:30;101075.72;;;3.47;100.00
21504;BME280;10913;51.992;9.228;2024-03-17T03:56:55;101075.69;;;3.45;100.00
21504;BME280;10913;51.992;9.228;2024-03-17T03:59:21;101080.84;;;3.44;100.00
21504;BME280;10913;51.992;9.228;2024-03-17T04:01:47;101071.13;;;3.40;100.00
21504;BME280;10913;51.992;9.228;2024-03-17T04:04:14;101075.50;;;3.39;100.00
21504;BME280;10913;51.992;9.228;2024-03-17T04:06:40;101082.44;;;3.39;100.00
21504;BME280;10913;51.992;9.228;2024-03-17T04:09:05;101077.22;;;3.39;100.00
21504;BME280;10913;51.992;9.228;2024-03-17T04:11:33;101073.66;;;3.37;100.00
21504;BME280;10913;51.992;9.228;2024-03-17T04:13:59;101077.09;;;3.36;100.00
21504;BME280;10913;51.992;9.228;2024-03-17T04:16:26;101072.66;;;3.33;100.00
21504;BME280;10913;51.992;9.228;2024-03-17T04:18:51;101084.00;;;3.34;100.00
21504;BME280;10913;51.992;9.228;2024-03-17T04:21:17;101076.03;;;3.31;100.00
21504;BME280;10913;51.992;9.228;2024-03-17T04:23:42;101082.09;;;3.30;100.00
21504;BME280;10913;51.992;9.228;2024-03-17T04:26:07;101077.72;;;3.29;100.00
21504;BME280;10913;51.992;9.228;2024-03-17T04:28:33;101075.00;;;3.26;100.00
21504;BME280;10913;51.992;9.228;2024-03-17T04:31:06;101077.53;;;3.24;100.00
21504;BME280;10913;51.992;9.228;2024-03-17T04:33:34;101080.09;;;3.23;100.00
21504;BME280;10913;51.992;9.228;2024-03-17T04:36:01;101079.91;;;3.17;100.00
21504;BME280;10913;51.992;9.228;2024-03-17T04:38:27;101079.78;;;3.14;100.00
21504;BME280;10913;51.992;9.228;2024-03-17T04:40:53;101077.94;;;3.11;100.00
21504;BME280;10913;51.992;9.228;2024-03-17T04:43:29;101080.38;;;3.06;100.00
21504;BME280;10913;51.992;9.228;2024-03-17T04:46:04;101087.22;;;3.03;100.00
21504;BME280;10913;51.992;9.228;2024-03-17T04:48:31;101091.50;;;3.01;100.00
21504;BME280;10913;51.992;9.228;2024-03-17T04:50:57;101100.97;;;2.97;100.00
21504;BME280;10913;51.992;9.228;2024-03-17T04:53:23;101097.50;;;2.98;100.00
21504;BME280;10913;51.992;9.228;2024-03-17T04:58:25;101103.56;;;2.97;100.00
21504;BME280;10913;51.992;9.228;2024-03-17T05:00:50;101095.69;;;2.96;100.00
21504;BME280;10913;51.992;9.228;2024-03-17T05:03:16;101107.84;;;2.95;100.00
21504;BME280;10913;51.992;9.228;2024-03-17T05:05:41;101098.22;;;2.94;100.00
21504;BME280;10913;51.992;9.228;2024-03-17T05:08:06;101109.50;;;2.93;100.00
21504;BME280;10913;51.992;9.228;2024-03-17T05:10:32;101100.00;;;2.95;100.00
21504;BME280;10913;51.992;9.228;2024-03-17T05:12:57;101107.78;;;2.94;100.00
21504;BME280;10913;51.992;9.228;2024-03-17T05:15:23;101107.84;;;2.95;100.00
21504;BME280;10913;51.992;9.228;2024-03-17T05:17:48;101106.94;;;2.95;100.00
21504;BME280;10913;51.992;9.228;2024-03-17T05:20:13;101106.06;;;2.94;100.00
21504;BME280;10913;51.992;9.228;2024-03-17T05:22:39;101114.78;;;2.95;100.00
21504;BME280;10913;51.992;9.228;2024-03-17T05:25:04;101108.66;;;2.94;100.00
21504;BME280;10913;51.992;9.228;2024-03-17T05:27:30;101109.56;;;2.95;100.00
21504;BME280;10913;51.992;9.228;2024-03-17T05:29:55;101108.59;;;2.93;100.00
21504;BME280;10913;51.992;9.228;2024-03-17T05:32:21;101111.28;;;2.94;100.00
21504;BME280;10913;51.992;9.228;2024-03-17T05:34:46;101114.84;;;2.96;100.00
21504;BME280;10913;51.992;9.228;2024-03-17T05:37:12;101114.09;;;3.00;100.00
21504;BME280;10913;51.992;9.228;2024-03-17T05:39:37;101114.91;;;2.98;100.00
21504;BME280;10913;51.992;9.228;2024-03-17T05:42:02;101119.31;;;3.00;100.00
21504;BME280;10913;51.992;9.228;2024-03-17T05:44:29;101117.66;;;3.02;100.00
21504;BME280;10913;51.992;9.228;2024-03-17T05:46:55;101125.53;;;3.04;100.00
21504;BME280;10913;51.992;9.228;2024-03-17T05:49:23;101118.81;;;3.10;100.00
21504;BME280;10913;51.992;9.228;2024-03-17T05:51:48;101119.91;;;3.16;100.00
21504;BME280;10913;51.992;9.228;2024-03-17T05:54:13;101120.03;;;3.20;100.00
21504;BME280;10913;51.992;9.228;2024-03-17T05:56:39;101120.22;;;3.25;100.00
21504;BME280;10913;51.992;9.228;2024-03-17T05:59:05;101123.00;;;3.29;100.00
21504;BME280;10913;51.992;9.228;2024-03-17T06:01:30;101128.31;;;3.32;100.00
21504;BME280;10913;51.992;9.228;2024-03-17T06:03:56;101123.22;;;3.35;100.00
21504;BME280;10913;51.992;9.228;2024-03-17T06:06:21;101124.22;;;3.39;100.00
21504;BME280;10913;51.992;9.228;2024-03-17T06:08:47;101122.56;;;3.42;100.00
21504;BME280;10913;51.992;9.228;2024-03-17T06:11:14;101124.53;;;3.48;100.00
21504;BME280;10913;51.992;9.228;2024-03-17T06:13:40;101122.13;;;3.54;100.00
21504;BME280;10913;51.992;9.228;2024-03-17T06:16:05;101119.72;;;3.60;100.00
21504;BME280;10913;51.992;9.228;2024-03-17T06:18:31;101124.44;;;3.70;100.00
21504;BME280;10913;51.992;9.228;2024-03-17T06:20:56;101121.34;;;3.82;100.00
21504;BME280;10913;51.992;9.228;2024-03-17T06:23:25;101120.81;;;3.92;100.00
21504;BME280;10913;51.992;9.228;2024-03-17T06:25:52;101121.03;;;3.98;100.00
21504;BME280;10913;51.992;9.228;2024-03-17T06:28:19;101120.44;;;4.07;100.00
21504;BME280;10913;51.992;9.228;2024-03-17T06:30:45;101111.22;;;4.18;100.00
21504;BME280;10913;51.992;9.228;2024-03-17T06:33:16;101104.69;;;4.32;100.00
21504;BME280;10913;51.992;9.228;2024-03-17T06:35:44;101108.81;;;4.53;100.00
21504;BME280;10913;51.992;9.228;2024-03-17T06:38:10;101107.13;;;4.84;100.00
21504;BME280;10913;51.992;9.228;2024-03-17T06:40:37;101105.03;;;5.33;99.49
21504;BME280;10913;51.992;9.228;2024-03-17T06:43:03;101090.28;;;6.40;95.15
21504;BME280;10913;51.992;9.228;2024-03-17T06:45:29;101084.59;;;7.94;88.99
21504;BME280;10913;51.992;9.228;2024-03-17T06:47:54;101078.81;;;9.50;82.81
21504;BME280;10913;51.992;9.228;2024-03-17T06:50:20;101069.28;;;10.87;77.76
21504;BME280;10913;51.992;9.228;2024-03-17T06:52:46;101057.19;;;11.89;73.85
21504;BME280;10913;51.992;9.228;2024-03-17T06:55:11;101062.38;;;12.65;70.84
21504;BME280;10913;51.992;9.228;2024-03-17T06:57:37;101060.28;;;13.45;68.60
21504;BME280;10913;51.992;9.228;2024-03-17T07:00:03;101055.19;;;14.26;66.19
21504;BME280;10913;51.992;9.228;2024-03-17T07:02:31;101056.91;;;15.13;63.71
21504;BME280;10913;51.992;9.228;2024-03-17T07:04:57;101059.56;;;15.76;62.00
21504;BME280;10913;51.992;9.228;2024-03-17T07:07:23;101053.84;;;16.49;60.59
21504;BME280;10913;51.992;9.228;2024-03-17T07:09:48;101051.06;;;17.40;58.73
21504;BME280;10913;51.992;9.228;2024-03-17T07:12:13;101051.66;;;18.27;57.06
21504;BME280;10913;51.992;9.228;2024-03-17T07:14:39;101049.97;;;19.19;55.83
21504;BME280;10913;51.992;9.228;2024-03-17T07:17:04;101052.00;;;19.70;54.11
21504;BME280;10913;51.992;9.228;2024-03-17T07:19:30;101050.25;;;19.95;53.49
21504;BME280;10913;51.992;9.228;2024-03-17T07:21:57;101057.78;;;20.10;52.96
21504;BME280;10913;51.992;9.228;2024-03-17T07:24:22;101050.28;;;20.20;52.82
21504;BME280;10913;51.992;9.228;2024-03-17T07:26:48;101055.19;;;20.34;52.33
21504;BME280;10913;51.992;9.228;2024-03-17T07:29:14;101056.00;;;20.62;52.07
21504;BME280;10913;51.992;9.228;2024-03-17T07:31:39;101055.41;;;21.02;51.37
21504;BME280;10913;51.992;9.228;2024-03-17T07:34:05;101051.66;;;21.31;50.84
21504;BME280;10913;51.992;9.228;2024-03-17T07:36:30;101050.69;;;21.09;50.89
21504;BME280;10913;51.992;9.228;2024-03-17T07:38:56;101051.16;;;20.96;50.97
21504;BME280;10913;51.992;9.228;2024-03-17T07:41:21;101048.84;;;21.34;51.07
21504;BME280;10913;51.992;9.228;2024-03-17T07:43:49;101049.81;;;21.77;50.28
21504;BME280;10913;51.992;9.228;2024-03-17T07:46:15;101044.06;;;22.08;49.81
21504;BME280;10913;51.992;9.228;2024-03-17T07:48:41;101040.69;;;22.63;49.19
21504;BME280;10913;51.992;9.228;2024-03-17T07:51:12;101042.00;;;23.33;48.28
21504;BME280;10913;51.992;9.228;2024-03-17T07:53:39;101030.63;;;24.00;47.65
21504;BME280;10913;51.992;9.228;2024-03-17T07:56:06;101026.84;;;24.38;47.06
21504;BME280;10913;51.992;9.228;2024-03-17T07:58:36;101027.25;;;24.98;46.34
21504;BME280;10913;51.992;9.228;2024-03-17T08:01:05;101027.31;;;25.61;45.72
21504;BME280;10913;51.992;9.228;2024-03-17T08:03:33;101023.34;;;26.14;44.97
21504;BME280;10913;51.992;9.228;2024-03-17T08:06:00;101013.41;;;26.29;44.62
21504;BME280;10913;51.992;9.228;2024-03-17T08:08:26;101018.53;;;26.63;44.39
21504;BME280;10913;51.992;9.228;2024-03-17T08:10:52;101016.06;;;27.03;43.59
21504;BME280;10913;51.992;9.228;2024-03-17T08:13:18;101019.00;;;27.41;43.41
21504;BME280;10913;51.992;9.228;2024-03-17T08:15:45;101007.91;;;27.72;42.73
21504;BME280;10913;51.992;9.228;2024-03-17T08:18:12;101019.50;;;27.89;42.70
21504;BME280;10913;51.992;9.228;2024-03-17T08:20:41;101004.41;;;27.29;42.89
21504;BME280;10913;51.992;9.228;2024-03-17T08:23:07;101011.50;;;27.03;43.24
21504;BME280;10913;51.992;9.228;2024-03-17T08:25:34;101005.94;;;26.48;43.72
21504;BME280;10913;51.992;9.228;2024-03-17T08:28:00;101010.84;;;26.41;43.74
21504;BME280;10913;51.992;9.228;2024-03-17T08:30:26;101006.06;;;26.75;44.23
21504;BME280;10913;51.992;9.228;2024-03-17T08:32:51;100995.00;;;27.35;43.46
21504;BME280;10913;51.992;9.228;2024-03-17T08:35:17;100992.88;;;27.94;43.11
21504;BME280;10913;51.992;9.228;2024-03-17T08:37:42;100996.16;;;28.64;42.20
21504;BME280;10913;51.992;9.228;2024-03-17T08:40:09;100996.38;;;29.11;41.84
21504;BME280;10913;51.992;9.228;2024-03-17T08:42:34;101000.16;;;29.22;41.25
21504;BME280;10913;51.992;9.228;2024-03-17T08:44:59;100994.31;;;29.15;41.07
21504;BME280;10913;51.992;9.228;2024-03-17T08:47:25;101005.16;;;29.28;41.16
21504;BME280;10913;51.992;9.228;2024-03-17T08:49:50;100996.53;;;29.46;41.25
21504;BME280;10913;51.992;9.228;2024-03-17T08:52:16;101004.53;;;28.61;41.29
21504;BME280;10913;51.992;9.228;2024-03-17T08:54:46;101006.28;;;28.49;41.01
21504;BME280;10913;51.992;9.228;2024-03-17T08:57:12;101006.59;;;28.44;41.17
21504;BME280;10913;51.992;9.228;2024-03-17T08:59:37;101010.69;;;27.98;41.81
21504;BME280;10913;51.992;9.228;2024-03-17T09:02:03;101017.09;;;27.57;42.26
21504;BME280;10913;51.992;9.228;2024-03-17T09:04:28;101013.41;;;27.30;42.28
21504;BME280;10913;51.992;9.228;2024-03-17T09:06:54;101018.88;;;26.43;43.07
21504;BME280;10913;51.992;9.228;2024-03-17T09:09:21;101019.81;;;25.98;44.10
21504;BME280;10913;51.992;9.228;2024-03-17T09:11:47;101005.50;;;25.64;43.66
21504;BME280;10913;51.992;9.228;2024-03-17T09:14:12;101006.34;;;24.85;44.29
21504;BME280;10913;51.992;9.228;2024-03-17T09:16:38;101007.50;;;24.30;45.44
21504;BME280;10913;51.992;9.228;2024-03-17T09:19:03;101005.13;;;23.88;45.42
21504;BME280;10913;51.992;9.228;2024-03-17T09:21:28;101010.00;;;23.25;46.09
21504;BME280;10913;51.992;9.228;2024-03-17T09:23:54;101003.00;;;23.21;47.44
21504;BME280;10913;51.992;9.228;2024-03-17T09:26:19;101007.66;;;22.99;47.22
21504;BME280;10913;51.992;9.228;2024-03-17T09:28:44;101001.84;;;22.69;48.06
21504;BME280;10913;51.992;9.228;2024-03-17T09:31:10;101010.63;;;22.54;47.89
21504;BME280;10913;51.992;9.228;2024-03-17T09:33:37;101007.00;;;22.14;48.86
21504;BME280;10913;51.992;9.228;2024-03-17T09:36:08;101001.88;;;22.08;49.21
21504;BME280;10913;51.992;9.228;2024-03-17T09:38:36;100994.19;;;21.77;49.64
21504;BME280;10913;51.992;9.228;2024-03-17T09:41:02;100996.50;;;21.64;49.55
21504;BME280;10913;51.992;9.228;2024-03-17T09:43:35;100999.53;;;21.57;49.30
21504;BME280;10913;51.992;9.228;2024-03-17T09:46:04;100997.13;;;21.27;50.08
21504;BME280;10913;51.992;9.228;2024-03-17T09:48:30;100991.91;;;20.99;50.55
21504;BME280;10913;51.992;9.228;2024-03-17T09:50:58;101002.41;;;20.59;50.81
21504;BME280;10913;51.992;9.228;2024-03-17T09:53:26;101004.13;;;20.37;51.09
21504;BME280;10913;51.992;9.228;2024-03-17T09:56:32;101002.31;;;20.11;51.82
21504;BME280;10913;51.992;9.228;2024-03-17T09:58:51;101000.19;;;19.95;52.04
21504;BME280;10913;51.992;9.228;2024-03-17T10:01:17;101008.44;;;19.89;52.37
21504;BME280;10913;51.992;9.228;2024-03-17T10:06:30;101011.97;;;19.90;51.85
21504;BME280;10913;51.992;9.228;2024-03-17T10:09:00;101008.16;;;19.71;51.65
21504;BME280;10913;51.992;9.228;2024-03-17T10:11:41;101009.94;;;19.42;52.04
21504;BME280;10913;51.992;9.228;2024-03-17T10:14:08;101019.88;;;19.11;52.17
21504;BME280;10913;51.992;9.228;2024-03-17T10:16:35;101012.28;;;18.65;52.90
21504;BME280;10913;51.992;9.228;2024-03-17T10:19:11;101024.53;;;18.07;53.37
21504;BME280;10913;51.992;9.228;2024-03-17T10:21:39;101016.53;;;17.33;54.48
21504;BME280;10913;51.992;9.228;2024-03-17T10:24:22;101016.59;;;16.90;56.14
21504;BME280;10913;51.992;9.228;2024-03-17T10:26:49;101014.38;;;17.10;56.82
21504;BME280;10913;51.992;9.228;2024-03-17T10:29:34;101003.56;;;17.16;56.63
21504;BME280;10913;51.992;9.228;2024-03-17T10:34:30;100996.81;;;17.77;57.61
21504;BME280;10913;51.992;9.228;2024-03-17T10:37:13;100995.84;;;18.13;56.49
21504;BME280;10913;51.992;9.228;2024-03-17T10:39:51;100986.22;;;18.06;56.16
21504;BME280;10913;51.992;9.228;2024-03-17T10:42:27;100992.13;;;17.85;55.69
21504;BME280;10913;51.992;9.228;2024-03-17T10:45:01;100983.06;;;17.55;55.33
21504;BME280;10913;51.992;9.228;2024-03-17T10:47:30;100989.72;;;17.37;55.02
21504;BME280;10913;51.992;9.228;2024-03-17T10:49:55;100987.94;;;17.38;56.13
21504;BME280;10913;51.992;9.228;2024-03-17T10:52:23;100980.09;;;17.67;56.37
21504;BME280;10913;51.992;9.228;2024-03-17T10:54:52;100977.91;;;17.83;55.59
21504;BME280;10913;51.992;9.228;2024-03-17T10:59:59;100967.88;;;17.57;53.73
21504;BME280;10913;51.992;9.228;2024-03-17T11:02:26;100966.00;;;17.59;53.57
21504;BME280;10913;51.992;9.228;2024-03-17T11:05:24;100969.47;;;17.27;54.91
21504;BME280;10913;51.992;9.228;2024-03-17T11:07:51;100968.66;;;17.23;55.24
21504;BME280;10913;51.992;9.228;2024-03-17T11:10:23;100966.69;;;17.32;54.88
21504;BME280;10913;51.992;9.228;2024-03-17T11:12:49;100964.13;;;17.27;54.90
21504;BME280;10913;51.992;9.228;2024-03-17T11:17:46;100964.00;;;17.33;56.66
21504;BME280;10913;51.992;9.228;2024-03-17T11:20:17;100962.44;;;17.23;55.24
21504;BME280;10913;51.992;9.228;2024-03-17T11:22:49;100956.25;;;16.82;54.74
21504;BME280;10913;51.992;9.228;2024-03-17T11:28:07;100974.63;;;16.53;55.55
21504;BME280;10913;51.992;9.228;2024-03-17T11:46:53;100972.25;;;16.82;56.60
21504;BME280;10913;51.992;9.228;2024-03-17T11:49:25;100957.94;;;16.86;55.12
21504;BME280;10913;51.992;9.228;2024-03-17T11:51:53;100966.78;;;16.88;53.77
21504;BME280;10913;51.992;9.228;2024-03-17T11:54:20;100964.28;;;16.81;53.55
21504;BME280;10913;51.992;9.228;2024-03-17T11:56:49;100962.75;;;16.69;54.35
21504;BME280;10913;51.992;9.228;2024-03-17T11:59:16;100955.81;;;16.59;55.30
21504;BME280;10913;51.992;9.228;2024-03-17T12:01:51;100952.09;;;16.69;54.78
21504;BME280;10913;51.992;9.228;2024-03-17T12:04:19;100935.16;;;16.70;55.88
21504;BME280;10913;51.992;9.228;2024-03-17T12:06:45;100935.59;;;16.92;55.73
21504;BME280;10913;51.992;9.228;2024-03-17T12:09:24;100931.38;;;16.80;53.81
21504;BME280;10913;51.992;9.228;2024-03-17T12:12:08;100923.16;;;16.48;53.66
21504;BME280;10913;51.992;9.228;2024-03-17T12:14:35;100920.03;;;16.28;54.37
21504;BME280;10913;51.992;9.228;2024-03-17T12:17:12;100923.91;;;16.11;55.12
21504;BME280;10913;51.992;9.228;2024-03-17T12:19:39;100923.81;;;16.17;54.86
21504;BME280;10913;51.992;9.228;2024-03-17T12:22:06;100932.50;;;16.26;54.84
21504;BME280;10913;51.992;9.228;2024-03-17T12:24:33;100926.56;;;16.11;54.82
21504;BME280;10913;51.992;9.228;2024-03-17T12:27:00;100915.66;;;16.24;55.46
21504;BME280;10913;51.992;9.228;2024-03-17T12:29:36;100921.94;;;16.19;54.87
21504;BME280;10913;51.992;9.228;2024-03-17T12:32:09;100922.56;;;15.89;55.47
21504;BME280;10913;51.992;9.228;2024-03-17T12:34:37;100906.63;;;15.86;54.99
21504;BME280;10913;51.992;9.228;2024-03-17T12:37:03;100905.47;;;15.99;56.71
21504;BME280;10913;51.992;9.228;2024-03-17T12:39:32;100912.38;;;16.11;55.98
21504;BME280;10913;51.992;9.228;2024-03-17T12:42:10;100901.69;;;16.12;55.46
21504;BME280;10913;51.992;9.228;2024-03-17T12:44:58;100901.47;;;16.22;54.97
21504;BME280;10913;51.992;9.228;2024-03-17T12:47:24;100902.31;;;16.24;55.22
21504;BME280;10913;51.992;9.228;2024-03-17T12:49:57;100904.81;;;15.88;55.78
21504;BME280;10913;51.992;9.228;2024-03-17T12:52:27;100893.53;;;15.74;55.68
21504;BME280;10913;51.992;9.228;2024-03-17T12:54:59;100895.25;;;15.76;56.17
21504;BME280;10913;51.992;9.228;2024-03-17T12:57:49;100895.94;;;15.88;55.96
21504;BME280;10913;51.992;9.228;2024-03-17T13:00:33;100898.50;;;15.92;56.54
21504;BME280;10913;51.992;9.228;2024-03-17T13:03:03;100900.19;;;15.98;57.42
21504;BME280;10913;51.992;9.228;2024-03-17T13:05:29;100896.66;;;15.97;56.07
21504;BME280;10913;51.992;9.228;2024-03-17T13:07:55;100899.22;;;16.00;57.37
21504;BME280;10913;51.992;9.228;2024-03-17T13:10:22;100898.97;;;16.14;56.64
21504;BME280;10913;51.992;9.228;2024-03-17T13:13:04;100894.31;;;16.24;56.16
21504;BME280;10913;51.992;9.228;2024-03-17T13:15:33;100895.13;;;16.29;55.94
21504;BME280;10913;51.992;9.228;2024-03-17T13:18:04;100892.47;;;16.27;56.18
21504;BME280;10913;51.992;9.228;2024-03-17T13:20:30;100887.22;;;16.23;56.19
21504;BME280;10913;51.992;9.228;2024-03-17T13:22:57;100879.59;;;16.06;55.32
21504;BME280;10913;51.992;9.228;2024-03-17T13:25:26;100872.94;;;15.82;56.70